sensor_id;sensor_type;location;lat;lon;timestamp;pressure;altitude;pressure_sealevel;temperature;humidity
57048;BME280;42934;54.294;18.598;2023-02-14T00:02:03;102419.47;;;4.35;82.73
57048;BME280;42934;54.294;18.598;2023-02-14T00:04:33;102419.53;;;4.38;82.49
57048;BME280;42934;54.294;18.598;2023-02-14T00:07:04;102426.50;;;4.39;82.64
57048;BME280;42934;54.294;18.598;2023-02-14T00:09:34;102431.72;;;4.41;82.61
57048;BME280;42934;54.294;18.598;2023-02-14T00:12:03;102427.31;;;4.38;82.53
57048;BME280;42934;54.294;18.598;2023-02-14T00:14:34;102432.53;;;4.38;82.77
57048;BME280;42934;54.294;18.598;2023-02-14T00:17:20;102429.94;;;4.38;82.89
57048;BME280;42934;54.294;18.598;2023-02-14T00:19:49;102426.50;;;4.39;82.43
57048;BME280;42934;54.294;18.598;2023-02-14T00:22:18;102429.94;;;4.38;82.64
57048;BME280;42934;54.294;18.598;2023-02-14T00:24:47;102430.72;;;4.34;83.82
57048;BME280;42934;54.294;18.598;2023-02-14T00:27:16;102431.66;;;4.38;82.95
57048;BME280;42934;54.294;18.598;2023-02-14T00:29:47;102435.13;;;4.38;82.83
57048;BME280;42934;54.294;18.598;2023-02-14T00:32:16;102436.03;;;4.39;82.98
57048;BME280;42934;54.294;18.598;2023-02-14T00:34:45;102444.72;;;4.39;82.63
57048;BME280;42934;54.294;18.598;2023-02-14T00:37:14;102439.50;;;4.39;83.10
57048;BME280;42934;54.294;18.598;2023-02-14T00:39:43;102437.72;;;4.37;82.96
57048;BME280;42934;54.294;18.598;2023-02-14T00:42:12;102431.66;;;4.36;83.38
57048;BME280;42934;54.294;18.598;2023-02-14T00:44:41;102428.22;;;4.39;82.69
57048;BME280;42934;54.294;18.598;2023-02-14T00:47:12;102435.22;;;4.41;82.82
57048;BME280;42934;54.294;18.598;2023-02-14T00:49:41;102443.84;;;4.40;83.20
57048;BME280;42934;54.294;18.598;2023-02-14T00:52:10;102449.91;;;4.39;83.54
57048;BME280;42934;54.294;18.598;2023-02-14T00:54:39;102449.91;;;4.39;83.53
57048;BME280;42934;54.294;18.598;2023-02-14T00:57:08;102455.13;;;4.39;83.26
57048;BME280;42934;54.294;18.598;2023-02-14T00:59:37;102453.38;;;4.40;83.58
57048;BME280;42934;54.294;18.598;2023-02-14T01:02:06;102450.78;;;4.40;83.50
57048;BME280;42934;54.294;18.598;2023-02-14T01:04:37;102454.31;;;4.42;83.22
57048;BME280;42934;54.294;18.598;2023-02-14T01:07:06;102456.84;;;4.40;83.49
57048;BME280;42934;54.294;18.598;2023-02-14T01:09:35;102464.66;;;4.39;83.21
57048;BME280;42934;54.294;18.598;2023-02-14T01:12:04;102465.47;;;4.38;83.08
57048;BME280;42934;54.294;18.598;2023-02-14T01:14:34;102476.75;;;4.38;83.23
57048;BME280;42934;54.294;18.598;2023-02-14T01:17:03;102463.75;;;4.38;83.55
57048;BME280;42934;54.294;18.598;2023-02-14T01:19:32;102464.66;;;4.39;83.67
57048;BME280;42934;54.294;18.598;2023-02-14T01:22:02;102464.56;;;4.36;83.20
57048;BME280;42934;54.294;18.598;2023-02-14T01:24:31;102462.88;;;4.38;83.96
57048;BME280;42934;54.294;18.598;2023-02-14T01:27:00;102473.31;;;4.39;83.92
57048;BME280;42934;54.294;18.598;2023-02-14T01:29:30;102475.06;;;4.40;83.39
57048;BME280;42934;54.294;18.598;2023-02-14T01:31:59;102478.53;;;4.39;83.01
57048;BME280;42934;54.294;18.598;2023-02-14T01:34:28;102472.38;;;4.36;83.60
57048;BME280;42934;54.294;18.598;2023-02-14T01:36:57;102472.41;;;4.37;83.80
57048;BME280;42934;54.294;18.598;2023-02-14T01:39:27;102475.84;;;4.36;83.91
57048;BME280;42934;54.294;18.598;2023-02-14T01:41:56;102467.19;;;4.37;83.55
57048;BME280;42934;54.294;18.598;2023-02-14T01:44:53;102474.16;;;4.38;83.78
57048;BME280;42934;54.294;18.598;2023-02-14T01:47:23;102472.38;;;4.36;83.73
57048;BME280;42934;54.294;18.598;2023-02-14T01:49:56;102473.19;;;4.33;84.16
57048;BME280;42934;54.294;18.598;2023-02-14T01:52:30;102482.72;;;4.34;83.71
57048;BME280;42934;54.294;18.598;2023-02-14T01:55:05;102481.81;;;4.32;83.95
57048;BME280;42934;54.294;18.598;2023-02-14T01:57:38;102466.25;;;4.33;84.00
57048;BME280;42934;54.294;18.598;2023-02-14T02:00:09;102471.47;;;4.33;83.80
57048;BME280;42934;54.294;18.598;2023-02-14T02:02:56;102475.81;;;4.35;83.34
57048;BME280;42934;54.294;18.598;2023-02-14T02:05:27;102475.81;;;4.35;83.49
57048;BME280;42934;54.294;18.598;2023-02-14T02:07:58;102474.94;;;4.34;84.40
57048;BME280;42934;54.294;18.598;2023-02-14T02:10:29;102470.66;;;4.36;83.58
57048;BME280;42934;54.294;18.598;2023-02-14T02:13:03;102462.84;;;4.36;83.95
57048;BME280;42934;54.294;18.598;2023-02-14T02:15:39;102475.00;;;4.37;84.02
57048;BME280;42934;54.294;18.598;2023-02-14T02:18:14;102473.25;;;4.36;83.54
57048;BME280;42934;54.294;18.598;2023-02-14T02:21:05;102479.28;;;4.35;83.82
57048;BME280;42934;54.294;18.598;2023-02-14T02:24:21;102480.13;;;4.34;84.04
57048;BME280;42934;54.294;18.598;2023-02-14T02:33:34;102477.44;;;4.29;84.05
57048;BME280;42934;54.294;18.598;2023-02-14T02:39:27;102477.41;;;4.28;83.91
57048;BME280;42934;54.294;18.598;2023-02-14T02:42:04;102486.94;;;4.27;84.15
57048;BME280;42934;54.294;18.598;2023-02-14T02:44:43;102482.53;;;4.26;83.92
57048;BME280;42934;54.294;18.598;2023-02-14T02:47:24;102477.28;;;4.23;83.95
57048;BME280;42934;54.294;18.598;2023-02-14T02:50:01;102482.47;;;4.23;84.24
57048;BME280;42934;54.294;18.598;2023-02-14T02:52:58;102493.81;;;4.25;83.97
57048;BME280;42934;54.294;18.598;2023-02-14T02:55:40;102501.59;;;4.25;84.25
57048;BME280;42934;54.294;18.598;2023-02-14T02:58:33;102512.00;;;4.25;83.96
57048;BME280;42934;54.294;18.598;2023-02-14T03:01:10;102499.88;;;4.26;84.10
57048;BME280;42934;54.294;18.598;2023-02-14T03:03:45;102499.06;;;4.28;83.61
57048;BME280;42934;54.294;18.598;2023-02-14T03:06:33;102507.78;;;4.30;83.55
57048;BME280;42934;54.294;18.598;2023-02-14T03:09:50;102498.28;;;4.31;83.61
57048;BME280;42934;54.294;18.598;2023-02-14T03:15:43;102503.47;;;4.31;83.86
57048;BME280;42934;54.294;18.598;2023-02-14T03:18:28;102496.47;;;4.28;83.91
57048;BME280;42934;54.294;18.598;2023-02-14T03:21:06;102497.31;;;4.27;84.12
57048;BME280;42934;54.294;18.598;2023-02-14T03:23:44;102506.81;;;4.25;83.72
57048;BME280;42934;54.294;18.598;2023-02-14T03:26:24;102512.88;;;4.26;83.45
57048;BME280;42934;54.294;18.598;2023-02-14T03:29:00;102512.94;;;4.29;84.14
57048;BME280;42934;54.294;18.598;2023-02-14T03:31:34;102507.75;;;4.29;83.72
57048;BME280;42934;54.294;18.598;2023-02-14T03:34:09;102519.94;;;4.30;83.65
57048;BME280;42934;54.294;18.598;2023-02-14T03:36:45;102517.31;;;4.30;83.85
57048;BME280;42934;54.294;18.598;2023-02-14T03:39:22;102519.88;;;4.28;84.06
57048;BME280;42934;54.294;18.598;2023-02-14T03:41:58;102525.94;;;4.29;83.64
57048;BME280;42934;54.294;18.598;2023-02-14T03:44:33;102520.81;;;4.30;83.68
57048;BME280;42934;54.294;18.598;2023-02-14T03:47:08;102521.66;;;4.29;83.55
57048;BME280;42934;54.294;18.598;2023-02-14T03:49:41;102523.34;;;4.29;83.78
57048;BME280;42934;54.294;18.598;2023-02-14T03:52:12;102522.47;;;4.28;83.90
57048;BME280;42934;54.294;18.598;2023-02-14T03:54:43;102526.00;;;4.32;83.92
57048;BME280;42934;54.294;18.598;2023-02-14T03:57:18;102539.06;;;4.33;83.82
57048;BME280;42934;54.294;18.598;2023-02-14T03:59:49;102531.28;;;4.35;83.96
57048;BME280;42934;54.294;18.598;2023-02-14T04:02:23;102529.53;;;4.34;83.57
57048;BME280;42934;54.294;18.598;2023-02-14T04:04:53;102527.75;;;4.31;83.75
57048;BME280;42934;54.294;18.598;2023-02-14T04:07:24;102538.16;;;4.31;83.89
57048;BME280;42934;54.294;18.598;2023-02-14T04:09:54;102534.72;;;4.32;83.41
57048;BME280;42934;54.294;18.598;2023-02-14T04:12:24;102524.28;;;4.31;83.61
57048;BME280;42934;54.294;18.598;2023-02-14T04:15:06;102516.44;;;4.29;83.94
57048;BME280;42934;54.294;18.598;2023-02-14T04:17:35;102516.34;;;4.26;84.09
57048;BME280;42934;54.294;18.598;2023-02-14T04:20:22;102517.19;;;4.25;84.00
57048;BME280;42934;54.294;18.598;2023-02-14T04:22:51;102524.97;;;4.24;84.13
57048;BME280;42934;54.294;18.598;2023-02-14T04:25:21;102521.53;;;4.25;84.07
57048;BME280;42934;54.294;18.598;2023-02-14T04:27:51;102513.69;;;4.23;84.14
57048;BME280;42934;54.294;18.598;2023-02-14T04:30:21;102515.53;;;4.27;84.25
57048;BME280;42934;54.294;18.598;2023-02-14T04:32:50;102511.19;;;4.28;84.25
57048;BME280;42934;54.294;18.598;2023-02-14T04:35:19;102505.16;;;4.29;83.96
57048;BME280;42934;54.294;18.598;2023-02-14T04:37:48;102512.94;;;4.29;84.37
57048;BME280;42934;54.294;18.598;2023-02-14T04:40:17;102506.91;;;4.30;84.35
57048;BME280;42934;54.294;18.598;2023-02-14T04:42:46;102512.06;;;4.28;84.27
57048;BME280;42934;54.294;18.598;2023-02-14T04:45:17;102515.59;;;4.30;84.08
57048;BME280;42934;54.294;18.598;2023-02-14T04:47:46;102514.72;;;4.30;83.75
57048;BME280;42934;54.294;18.598;2023-02-14T04:50:15;102512.94;;;4.27;83.92
57048;BME280;42934;54.294;18.598;2023-02-14T04:52:44;102503.34;;;4.25;84.16
57048;BME280;42934;54.294;18.598;2023-02-14T04:55:13;102509.31;;;4.21;84.47
57048;BME280;42934;54.294;18.598;2023-02-14T04:57:42;102510.88;;;4.14;84.07
57048;BME280;42934;54.294;18.598;2023-02-14T05:00:13;102507.44;;;4.15;84.31
57048;BME280;42934;54.294;18.598;2023-02-14T05:02:43;102515.25;;;4.15;84.14
57048;BME280;42934;54.294;18.598;2023-02-14T05:05:12;102516.91;;;4.13;84.16
57048;BME280;42934;54.294;18.598;2023-02-14T05:07:41;102523.78;;;4.11;84.42
57048;BME280;42934;54.294;18.598;2023-02-14T05:10:14;102522.91;;;4.09;84.35
57048;BME280;42934;54.294;18.598;2023-02-14T05:12:43;102522.84;;;4.07;84.54
57048;BME280;42934;54.294;18.598;2023-02-14T05:15:13;102521.97;;;4.07;84.63
57048;BME280;42934;54.294;18.598;2023-02-14T05:17:43;102520.97;;;4.02;84.56
57048;BME280;42934;54.294;18.598;2023-02-14T05:20:13;102514.91;;;4.01;84.52
57048;BME280;42934;54.294;18.598;2023-02-14T05:22:41;102520.06;;;4.00;84.69
57048;BME280;42934;54.294;18.598;2023-02-14T05:25:11;102522.66;;;4.00;84.50
57048;BME280;42934;54.294;18.598;2023-02-14T05:27:40;102525.31;;;4.01;84.83
57048;BME280;42934;54.294;18.598;2023-02-14T05:30:10;102519.19;;;3.99;84.76
57048;BME280;42934;54.294;18.598;2023-02-14T05:32:39;102521.78;;;3.99;84.48
57048;BME280;42934;54.294;18.598;2023-02-14T05:35:10;102523.44;;;3.96;84.83
57048;BME280;42934;54.294;18.598;2023-02-14T05:37:39;102525.81;;;3.86;84.88
57048;BME280;42934;54.294;18.598;2023-02-14T05:40:08;102516.97;;;3.80;84.93
57048;BME280;42934;54.294;18.598;2023-02-14T05:42:40;102522.97;;;3.77;85.00
57048;BME280;42934;54.294;18.598;2023-02-14T05:45:10;102525.44;;;3.73;85.10
57048;BME280;42934;54.294;18.598;2023-02-14T05:47:39;102521.13;;;3.73;85.31
57048;BME280;42934;54.294;18.598;2023-02-14T05:50:10;102528.91;;;3.73;85.18
57048;BME280;42934;54.294;18.598;2023-02-14T05:52:39;102541.00;;;3.71;85.14
57048;BME280;42934;54.294;18.598;2023-02-14T05:55:09;102525.41;;;3.71;85.21
57048;BME280;42934;54.294;18.598;2023-02-14T05:57:39;102529.75;;;3.71;84.94
57048;BME280;42934;54.294;18.598;2023-02-14T06:00:09;102542.63;;;3.68;85.05
57048;BME280;42934;54.294;18.598;2023-02-14T06:02:41;102545.34;;;3.71;85.13
57048;BME280;42934;54.294;18.598;2023-02-14T06:05:11;102554.81;;;3.70;85.37
57048;BME280;42934;54.294;18.598;2023-02-14T06:07:41;102558.41;;;3.74;85.20
57048;BME280;42934;54.294;18.598;2023-02-14T06:10:16;102549.69;;;3.73;85.11
57048;BME280;42934;54.294;18.598;2023-02-14T06:12:46;102550.47;;;3.69;85.19
57048;BME280;42934;54.294;18.598;2023-02-14T06:15:17;102559.13;;;3.68;85.25
57048;BME280;42934;54.294;18.598;2023-02-14T06:17:50;102554.78;;;3.69;84.97
57048;BME280;42934;54.294;18.598;2023-02-14T06:20:22;102559.91;;;3.66;84.93
57048;BME280;42934;54.294;18.598;2023-02-14T06:22:52;102564.09;;;3.60;85.35
57048;BME280;42934;54.294;18.598;2023-02-14T06:25:22;102562.44;;;3.62;85.04
57048;BME280;42934;54.294;18.598;2023-02-14T06:27:54;102571.09;;;3.63;85.28
57048;BME280;42934;54.294;18.598;2023-02-14T06:30:24;102584.88;;;3.60;85.58
57048;BME280;42934;54.294;18.598;2023-02-14T06:32:53;102585.50;;;3.52;85.43
57048;BME280;42934;54.294;18.598;2023-02-14T06:35:24;102575.16;;;3.53;85.85
57048;BME280;42934;54.294;18.598;2023-02-14T06:37:53;102576.84;;;3.51;86.08
57048;BME280;42934;54.294;18.598;2023-02-14T06:40:22;102579.53;;;3.56;85.71
57048;BME280;42934;54.294;18.598;2023-02-14T06:42:51;102579.59;;;3.57;85.72
57048;BME280;42934;54.294;18.598;2023-02-14T06:45:20;102578.66;;;3.55;85.72
57048;BME280;42934;54.294;18.598;2023-02-14T06:47:49;102581.34;;;3.58;85.69
57048;BME280;42934;54.294;18.598;2023-02-14T06:50:19;102584.72;;;3.56;85.90
57048;BME280;42934;54.294;18.598;2023-02-14T06:52:49;102581.34;;;3.58;85.84
57048;BME280;42934;54.294;18.598;2023-02-14T06:55:18;102584.88;;;3.60;85.85
57048;BME280;42934;54.294;18.598;2023-02-14T06:57:47;102606.53;;;3.61;85.81
57048;BME280;42934;54.294;18.598;2023-02-14T07:00:17;102592.72;;;3.62;85.73
57048;BME280;42934;54.294;18.598;2023-02-14T07:02:46;102587.56;;;3.63;85.87
57048;BME280;42934;54.294;18.598;2023-02-14T07:05:16;102592.75;;;3.63;85.94
57048;BME280;42934;54.294;18.598;2023-02-14T07:07:45;102598.78;;;3.62;85.81
57048;BME280;42934;54.294;18.598;2023-02-14T07:10:16;102616.13;;;3.63;85.69
57048;BME280;42934;54.294;18.598;2023-02-14T07:12:45;102614.47;;;3.66;85.81
57048;BME280;42934;54.294;18.598;2023-02-14T07:15:14;102607.56;;;3.68;85.97
57048;BME280;42934;54.294;18.598;2023-02-14T07:17:43;102599.91;;;3.72;85.40
57048;BME280;42934;54.294;18.598;2023-02-14T07:20:13;102605.09;;;3.72;86.00
57048;BME280;42934;54.294;18.598;2023-02-14T07:22:42;102620.78;;;3.75;85.96
57048;BME280;42934;54.294;18.598;2023-02-14T07:25:12;102620.84;;;3.78;86.12
57048;BME280;42934;54.294;18.598;2023-02-14T07:27:43;102607.00;;;3.78;85.94
57048;BME280;42934;54.294;18.598;2023-02-14T07:30:13;102596.69;;;3.81;86.23
57048;BME280;42934;54.294;18.598;2023-02-14T07:32:43;102619.28;;;3.85;86.18
57048;BME280;42934;54.294;18.598;2023-02-14T07:35:12;102621.09;;;3.87;85.99
57048;BME280;42934;54.294;18.598;2023-02-14T07:37:41;102627.16;;;3.88;85.93
57048;BME280;42934;54.294;18.598;2023-02-14T07:40:11;102621.25;;;3.94;85.83
57048;BME280;42934;54.294;18.598;2023-02-14T07:42:43;102616.91;;;3.93;86.03
57048;BME280;42934;54.294;18.598;2023-02-14T07:45:12;102622.25;;;3.97;86.04
57048;BME280;42934;54.294;18.598;2023-02-14T07:47:49;102626.50;;;3.95;85.99
57048;BME280;42934;54.294;18.598;2023-02-14T07:50:20;102631.00;;;4.01;86.21
57048;BME280;42934;54.294;18.598;2023-02-14T07:52:49;102643.28;;;4.06;86.38
57048;BME280;42934;54.294;18.598;2023-02-14T07:55:18;102639.97;;;4.12;86.21
57048;BME280;42934;54.294;18.598;2023-02-14T07:57:49;102635.66;;;4.14;85.66
57048;BME280;42934;54.294;18.598;2023-02-14T08:00:19;102633.97;;;4.16;86.10
57048;BME280;42934;54.294;18.598;2023-02-14T08:02:48;102638.53;;;4.25;86.11
57048;BME280;42934;54.294;18.598;2023-02-14T08:05:18;102643.88;;;4.29;85.96
57048;BME280;42934;54.294;18.598;2023-02-14T08:07:47;102639.63;;;4.33;85.79
57048;BME280;42934;54.294;18.598;2023-02-14T08:10:17;102634.59;;;4.41;85.92
57048;BME280;42934;54.294;18.598;2023-02-14T08:12:47;102646.91;;;4.48;86.20
57048;BME280;42934;54.294;18.598;2023-02-14T08:15:31;102650.53;;;4.54;85.89
57048;BME280;42934;54.294;18.598;2023-02-14T08:18:20;102644.69;;;4.63;85.99
57048;BME280;42934;54.294;18.598;2023-02-14T08:20:50;102650.03;;;4.69;85.52
57048;BME280;42934;54.294;18.598;2023-02-14T08:23:20;102648.38;;;4.73;85.37
57048;BME280;42934;54.294;18.598;2023-02-14T08:25:50;102652.91;;;4.80;85.34
57048;BME280;42934;54.294;18.598;2023-02-14T08:28:21;102663.47;;;4.88;85.26
57048;BME280;42934;54.294;18.598;2023-02-14T08:30:51;102656.63;;;4.91;84.98
57048;BME280;42934;54.294;18.598;2023-02-14T08:33:21;102666.25;;;4.95;85.23
57048;BME280;42934;54.294;18.598;2023-02-14T08:35:51;102662.03;;;5.00;85.46
57048;BME280;42934;54.294;18.598;2023-02-14T08:38:20;102670.00;;;5.07;85.27
57048;BME280;42934;54.294;18.598;2023-02-14T08:40:49;102666.66;;;5.14;84.76
57048;BME280;42934;54.294;18.598;2023-02-14T08:43:20;102657.19;;;5.17;85.07
57048;BME280;42934;54.294;18.598;2023-02-14T08:45:52;102657.38;;;5.25;85.11
57048;BME280;42934;54.294;18.598;2023-02-14T08:48:21;102673.13;;;5.31;84.96
57048;BME280;42934;54.294;18.598;2023-02-14T08:50:52;102665.38;;;5.34;84.42
57048;BME280;42934;54.294;18.598;2023-02-14T08:53:21;102666.34;;;5.39;84.75
57048;BME280;42934;54.294;18.598;2023-02-14T08:55:50;102657.75;;;5.43;84.55
57048;BME280;42934;54.294;18.598;2023-02-14T08:58:20;102660.34;;;5.43;84.10
57048;BME280;42934;54.294;18.598;2023-02-14T09:00:50;102659.59;;;5.47;84.66
57048;BME280;42934;54.294;18.598;2023-02-14T09:03:18;102666.66;;;5.55;84.46
57048;BME280;42934;54.294;18.598;2023-02-14T09:05:48;102660.59;;;5.56;84.10
57048;BME280;42934;54.294;18.598;2023-02-14T09:08:17;102655.56;;;5.63;84.15
57048;BME280;42934;54.294;18.598;2023-02-14T09:10:46;102660.75;;;5.63;83.69
57048;BME280;42934;54.294;18.598;2023-02-14T09:13:15;102671.28;;;5.68;83.66
57048;BME280;42934;54.294;18.598;2023-02-14T09:15:46;102658.38;;;5.74;83.32
57048;BME280;42934;54.294;18.598;2023-02-14T09:18:14;102659.31;;;5.78;83.22
57048;BME280;42934;54.294;18.598;2023-02-14T09:20:44;102657.69;;;5.83;83.51
57048;BME280;42934;54.294;18.598;2023-02-14T09:23:13;102662.91;;;5.84;82.77
57048;BME280;42934;54.294;18.598;2023-02-14T09:25:42;102666.38;;;5.85;82.52
57048;BME280;42934;54.294;18.598;2023-02-14T09:28:11;102655.97;;;5.85;82.56
57048;BME280;42934;54.294;18.598;2023-02-14T09:30:40;102653.47;;;5.91;82.62
57048;BME280;42934;54.294;18.598;2023-02-14T09:33:10;102668.38;;;5.95;83.04
57048;BME280;42934;54.294;18.598;2023-02-14T09:35:39;102662.41;;;6.01;83.09
57048;BME280;42934;54.294;18.598;2023-02-14T09:38:10;102659.06;;;6.09;82.55
57048;BME280;42934;54.294;18.598;2023-02-14T09:40:46;102656.53;;;6.14;82.79
57048;BME280;42934;54.294;18.598;2023-02-14T09:43:21;102650.59;;;6.21;82.38
57048;BME280;42934;54.294;18.598;2023-02-14T09:45:53;102675.09;;;6.31;81.73
57048;BME280;42934;54.294;18.598;2023-02-14T09:48:27;102676.88;;;6.33;81.78
57048;BME280;42934;54.294;18.598;2023-02-14T09:51:02;102673.50;;;6.39;81.24
57048;BME280;42934;54.294;18.598;2023-02-14T09:53:35;102680.56;;;6.46;81.94
57048;BME280;42934;54.294;18.598;2023-02-14T09:56:11;102669.41;;;6.55;81.44
57048;BME280;42934;54.294;18.598;2023-02-14T09:58:49;102675.66;;;6.63;81.26
57048;BME280;42934;54.294;18.598;2023-02-14T10:01:28;102670.53;;;6.69;81.57
57048;BME280;42934;54.294;18.598;2023-02-14T10:04:14;102674.09;;;6.76;80.87
57048;BME280;42934;54.294;18.598;2023-02-14T10:06:53;102678.63;;;6.86;81.14
57048;BME280;42934;54.294;18.598;2023-02-14T10:12:14;102684.84;;;6.96;80.16
57048;BME280;42934;54.294;18.598;2023-02-14T10:14:44;102672.78;;;7.04;80.23
57048;BME280;42934;54.294;18.598;2023-02-14T10:17:17;102672.97;;;7.16;80.28
57048;BME280;42934;54.294;18.598;2023-02-14T10:19:55;102677.47;;;7.28;80.18
57048;BME280;42934;54.294;18.598;2023-02-14T10:22:30;102670.63;;;7.36;79.63
57048;BME280;42934;54.294;18.598;2023-02-14T10:25:13;102669.88;;;7.45;79.46
57048;BME280;42934;54.294;18.598;2023-02-14T10:27:46;102671.69;;;7.52;79.53
57048;BME280;42934;54.294;18.598;2023-02-14T10:30:19;102673.47;;;7.53;78.95
57048;BME280;42934;54.294;18.598;2023-02-14T10:32:56;102669.13;;;7.58;78.10
57048;BME280;42934;54.294;18.598;2023-02-14T10:35:33;102673.59;;;7.65;78.74
57048;BME280;42934;54.294;18.598;2023-02-14T10:38:19;102663.22;;;7.71;78.62
57048;BME280;42934;54.294;18.598;2023-02-14T10:41:16;102668.53;;;7.82;78.24
57048;BME280;42934;54.294;18.598;2023-02-14T10:43:56;102668.63;;;7.90;78.54
57048;BME280;42934;54.294;18.598;2023-02-14T10:46:35;102666.97;;;7.96;77.91
57048;BME280;42934;54.294;18.598;2023-02-14T10:49:18;102678.41;;;8.06;78.06
57048;BME280;42934;54.294;18.598;2023-02-14T10:51:56;102684.63;;;8.20;77.88
57048;BME280;42934;54.294;18.598;2023-02-14T10:54:35;102662.03;;;8.24;77.56
57048;BME280;42934;54.294;18.598;2023-02-14T10:57:11;102682.28;;;8.42;77.18
57048;BME280;42934;54.294;18.598;2023-02-14T10:59:49;102673.59;;;8.49;76.75
57048;BME280;42934;54.294;18.598;2023-02-14T11:02:23;102675.44;;;8.56;76.57
57048;BME280;42934;54.294;18.598;2023-02-14T11:04:53;102668.50;;;8.66;76.44
57048;BME280;42934;54.294;18.598;2023-02-14T11:07:24;102673.81;;;8.74;76.22
57048;BME280;42934;54.294;18.598;2023-02-14T11:09:53;102676.50;;;8.83;75.88
57048;BME280;42934;54.294;18.598;2023-02-14T11:12:35;102673.94;;;8.97;75.30
57048;BME280;42934;54.294;18.598;2023-02-14T11:15:19;102674.94;;;9.17;74.90
57048;BME280;42934;54.294;18.598;2023-02-14T11:17:52;102679.44;;;9.40;73.90
57048;BME280;42934;54.294;18.598;2023-02-14T11:20:35;102677.00;;;9.86;74.03
57048;BME280;42934;54.294;18.598;2023-02-14T11:23:19;102662.25;;;10.46;71.85
57048;BME280;42934;54.294;18.598;2023-02-14T11:25:50;102664.78;;;11.15;70.75
57048;BME280;42934;54.294;18.598;2023-02-14T11:28:22;102663.59;;;11.82;69.09
57048;BME280;42934;54.294;18.598;2023-02-14T11:30:51;102655.56;;;12.11;67.45
57048;BME280;42934;54.294;18.598;2023-02-14T11:33:42;102653.09;;;11.82;67.45
57048;BME280;42934;54.294;18.598;2023-02-14T11:36:14;102648.81;;;11.63;67.93
57048;BME280;42934;54.294;18.598;2023-02-14T11:38:54;102644.47;;;11.49;68.21
57048;BME280;42934;54.294;18.598;2023-02-14T11:41:24;102642.81;;;11.33;68.40
57048;BME280;42934;54.294;18.598;2023-02-14T11:44:11;102645.47;;;11.30;67.81
57048;BME280;42934;54.294;18.598;2023-02-14T11:46:42;102649.84;;;11.25;68.32
57048;BME280;42934;54.294;18.598;2023-02-14T11:49:27;102645.50;;;11.21;68.40
57048;BME280;42934;54.294;18.598;2023-02-14T11:51:59;102650.75;;;11.16;68.30
57048;BME280;42934;54.294;18.598;2023-02-14T11:54:33;102649.88;;;11.11;67.81
57048;BME280;42934;54.294;18.598;2023-02-14T11:57:05;102648.16;;;11.10;67.83
57048;BME280;42934;54.294;18.598;2023-02-14T11:59:39;102645.50;;;11.11;67.84
57048;BME280;42934;54.294;18.598;2023-02-14T12:02:26;102648.13;;;11.16;68.01
57048;BME280;42934;54.294;18.598;2023-02-14T12:04:59;102645.47;;;11.14;67.63
57048;BME280;42934;54.294;18.598;2023-02-14T12:07:31;102648.09;;;11.18;68.19
57048;BME280;42934;54.294;18.598;2023-02-14T12:10:22;102647.25;;;11.14;66.87
57048;BME280;42934;54.294;18.598;2023-02-14T12:12:59;102642.88;;;11.13;66.57
57048;BME280;42934;54.294;18.598;2023-02-14T12:15:34;102642.84;;;11.22;67.57
57048;BME280;42934;54.294;18.598;2023-02-14T12:18:46;102640.25;;;11.08;65.98
57048;BME280;42934;54.294;18.598;2023-02-14T12:21:45;102641.16;;;11.00;66.33
57048;BME280;42934;54.294;18.598;2023-02-14T12:24:22;102635.91;;;10.94;65.16
57048;BME280;42934;54.294;18.598;2023-02-14T12:27:03;102643.78;;;10.94;65.05
57048;BME280;42934;54.294;18.598;2023-02-14T12:29:37;102644.66;;;10.94;65.77
57048;BME280;42934;54.294;18.598;2023-02-14T12:32:15;102638.56;;;10.92;65.89
57048;BME280;42934;54.294;18.598;2023-02-14T12:34:46;102642.94;;;10.84;65.32
57048;BME280;42934;54.294;18.598;2023-02-14T12:37:38;102633.31;;;10.89;65.79
57048;BME280;42934;54.294;18.598;2023-02-14T12:40:14;102635.91;;;10.98;66.27
57048;BME280;42934;54.294;18.598;2023-02-14T12:43:10;102634.16;;;11.00;66.05
57048;BME280;42934;54.294;18.598;2023-02-14T12:46:03;102628.91;;;10.99;65.82
57048;BME280;42934;54.294;18.598;2023-02-14T12:48:47;102630.66;;;10.95;65.70
57048;BME280;42934;54.294;18.598;2023-02-14T12:51:25;102630.66;;;10.94;65.80
57048;BME280;42934;54.294;18.598;2023-02-14T12:54:04;102629.78;;;11.01;66.28
57048;BME280;42934;54.294;18.598;2023-02-14T12:56:45;102627.16;;;10.96;65.47
57048;BME280;42934;54.294;18.598;2023-02-14T12:59:27;102626.25;;;11.03;65.67
57048;BME280;42934;54.294;18.598;2023-02-14T13:02:16;102625.38;;;11.09;65.89
57048;BME280;42934;54.294;18.598;2023-02-14T13:04:58;102631.53;;;11.00;65.92
57048;BME280;42934;54.294;18.598;2023-02-14T13:07:40;102628.91;;;10.89;65.13
57048;BME280;42934;54.294;18.598;2023-02-14T13:10:21;102620.16;;;10.84;65.65
57048;BME280;42934;54.294;18.598;2023-02-14T13:12:58;102621.03;;;10.82;65.70
57048;BME280;42934;54.294;18.598;2023-02-14T13:15:39;102620.19;;;10.72;65.86
57048;BME280;42934;54.294;18.598;2023-02-14T13:18:17;102621.09;;;10.62;66.22
57048;BME280;42934;54.294;18.598;2023-02-14T13:20:52;102621.97;;;10.55;66.37
57048;BME280;42934;54.294;18.598;2023-02-14T13:23:26;102621.97;;;10.38;66.11
57048;BME280;42934;54.294;18.598;2023-02-14T13:25:59;102622.81;;;10.14;66.43
57048;BME280;42934;54.294;18.598;2023-02-14T13:28:30;102622.78;;;10.01;66.93
57048;BME280;42934;54.294;18.598;2023-02-14T13:31:02;102612.28;;;9.83;66.79
57048;BME280;42934;54.294;18.598;2023-02-14T13:33:34;102612.25;;;9.74;66.85
57048;BME280;42934;54.294;18.598;2023-02-14T13:36:07;102607.88;;;9.65;67.49
57048;BME280;42934;54.294;18.598;2023-02-14T13:38:44;102610.47;;;9.64;67.46